Time;durP1;ratioP1;P1;durP2;ratioP2;P2;SDS_P1;SDS_P2;PMS_P1;PMS_P2;Temp;Humidity;BMP_temperature;BMP_pressure;BME280_temperature;BME280_humidity;BME280_pressure;Samples;Min_cycle;Max_cycle;Signal;HPM_P1;HPM_P2
2023/10/28 00:00:44;;;;;;;0.98;0.98;;;9.20;99.90;;;;;;5009799;28;20479;-40
2023/10/28 00:03:10;;;;;;;1.17;0.98;;;9.20;99.90;;;;;;5001686;28;20033;-38
2023/10/28 00:05:36;;;;;;;0.98;0.90;;;9.30;99.90;;;;;;4999101;28;20798;-38
2023/10/28 00:08:03;;;;;;;1.00;1.00;;;9.30;99.90;;;;;;5003778;28;20037;-36
2023/10/28 00:10:30;;;;;;;1.20;1.10;;;9.30;99.90;;;;;;5006725;28;20123;-39
2023/10/28 00:12:55;;;;;;;0.80;0.80;;;9.30;99.90;;;;;;5003452;28;20057;-36
2023/10/28 00:15:21;;;;;;;0.95;0.90;;;9.30;99.90;;;;;;5005348;28;20026;-42
2023/10/28 00:17:47;;;;;;;0.63;0.63;;;9.30;99.90;;;;;;5005795;28;20025;-36
2023/10/28 00:20:17;;;;;;;0.95;0.95;;;9.40;99.90;;;;;;5003701;28;20083;-39
2023/10/28 00:22:47;;;;;;;0.88;0.73;;;9.40;99.90;;;;;;5005020;28;20087;-41
2023/10/28 00:25:16;;;;;;;0.70;0.70;;;9.30;99.90;;;;;;5007967;28;20061;-39
2023/10/28 00:27:43;;;;;;;0.60;0.60;;;9.30;99.90;;;;;;5003003;28;20037;-42
2023/10/28 00:30:09;;;;;;;0.60;0.60;;;9.30;99.90;;;;;;5007753;28;20033;-41
2023/10/28 00:32:39;;;;;;;0.80;0.80;;;9.30;99.90;;;;;;5003441;28;20092;-37
2023/10/28 00:35:08;;;;;;;0.63;0.63;;;9.30;99.90;;;;;;5001296;28;20280;-39
2023/10/28 00:37:35;;;;;;;1.10;0.65;;;9.20;99.90;;;;;;4991143;28;20080;-39
2023/10/28 00:40:01;;;;;;;0.98;0.70;;;9.10;99.90;;;;;;5001713;28;20033;-37
2023/10/28 00:42:27;;;;;;;0.77;0.77;;;9.10;99.90;;;;;;5007126;28;20029;-37
2023/10/28 00:44:55;;;;;;;0.90;0.90;;;9.10;99.90;;;;;;5010174;28;20033;-39
2023/10/28 00:47:23;;;;;;;1.15;0.75;;;9.00;99.90;;;;;;5004917;28;20030;-39
2023/10/28 00:49:52;;;;;;;0.77;0.77;;;9.00;99.90;;;;;;5009833;28;20033;-35
2023/10/28 00:52:19;;;;;;;1.90;0.80;;;9.00;99.90;;;;;;5007449;28;20466;-38
2023/10/28 00:54:51;;;;;;;0.70;0.70;;;9.00;99.90;;;;;;5010021;28;20076;-38
2023/10/28 00:57:17;;;;;;;0.57;0.57;;;9.10;99.90;;;;;;5011688;28;20607;-38
2023/10/28 00:59:43;;;;;;;0.60;0.60;;;9.10;99.90;;;;;;5013304;28;20462;-39
2023/10/28 01:02:10;;;;;;;0.55;0.55;;;9.10;99.90;;;;;;5004552;28;20121;-39
2023/10/28 01:04:36;;;;;;;0.80;0.80;;;9.10;99.90;;;;;;5006309;28;20476;-37
2023/10/28 01:07:02;;;;;;;0.77;0.77;;;9.10;99.90;;;;;;5006430;28;20047;-39
2023/10/28 01:09:28;;;;;;;0.70;0.68;;;9.10;99.90;;;;;;5007357;28;20037;-38
2023/10/28 01:11:54;;;;;;;0.77;0.77;;;9.10;99.90;;;;;;5010240;28;20026;-38
2023/10/28 01:14:20;;;;;;;0.60;0.60;;;9.10;99.90;;;;;;5009135;28;20033;-39
2023/10/28 01:16:46;;;;;;;0.80;0.70;;;9.10;99.90;;;;;;4989317;28;21187;-38
2023/10/28 01:19:11;;;;;;;0.60;0.60;;;9.10;99.90;;;;;;5006594;28;20284;-38
2023/10/28 01:21:37;;;;;;;0.88;0.88;;;9.10;99.90;;;;;;5007383;28;20112;-39
2023/10/28 01:24:03;;;;;;;0.60;0.60;;;9.00;99.90;;;;;;5006718;28;20791;-38
2023/10/28 01:26:29;;;;;;;3.65;1.10;;;9.10;99.90;;;;;;5008428;28;20045;-39
2023/10/28 01:28:57;;;;;;;1.10;1.00;;;9.00;99.90;;;;;;5006586;28;20045;-35
2023/10/28 01:31:23;;;;;;;1.02;0.70;;;9.10;99.90;;;;;;5009736;28;20554;-38
2023/10/28 01:33:48;;;;;;;2.00;0.90;;;9.10;99.90;;;;;;5007506;28;20034;-35
2023/10/28 01:36:15;;;;;;;1.58;0.77;;;9.10;99.90;;;;;;5002602;28;20061;-38
2023/10/28 01:38:42;;;;;;;0.60;0.60;;;9.10;99.90;;;;;;5005641;28;20034;-39
2023/10/28 01:41:08;;;;;;;1.27;0.70;;;9.10;99.90;;;;;;5005132;28;20034;-33
2023/10/28 01:43:33;;;;;;;1.65;0.80;;;9.10;99.90;;;;;;5011844;28;20030;-29
2023/10/28 01:45:59;;;;;;;2.22;0.77;;;9.20;99.90;;;;;;5012340;28;20040;-30
2023/10/28 01:48:25;;;;;;;1.58;0.80;;;9.20;99.90;;;;;;5011598;28;20463;-30
2023/10/28 01:50:51;;;;;;;1.05;0.70;;;9.30;99.90;;;;;;5010424;28;20522;-33
2023/10/28 01:53:17;;;;;;;0.75;0.70;;;9.30;99.90;;;;;;5009013;28;20034;-30
2023/10/28 01:55:44;;;;;;;0.65;0.65;;;9.30;99.90;;;;;;5009240;28;20381;-36
2023/10/28 01:58:10;;;;;;;0.60;0.60;;;9.30;99.90;;;;;;5010631;28;20026;-30
2023/10/28 02:00:35;;;;;;;0.60;0.60;;;9.30;99.90;;;;;;5012175;28;20160;-30
2023/10/28 02:03:02;;;;;;;0.98;0.70;;;9.20;99.90;;;;;;5010960;28;20040;-31
2023/10/28 02:05:27;;;;;;;0.77;0.70;;;9.20;99.90;;;;;;5007898;28;20038;-30
2023/10/28 02:07:53;;;;;;;1.25;0.70;;;9.20;99.90;;;;;;5009537;28;20037;-30
2023/10/28 02:10:18;;;;;;;0.70;0.70;;;9.30;99.90;;;;;;5007602;28;20033;-34
2023/10/28 02:12:44;;;;;;;0.80;0.80;;;9.20;99.90;;;;;;5009157;28;20030;-33
2023/10/28 02:15:10;;;;;;;0.50;0.50;;;9.30;99.90;;;;;;5009672;28;20750;-31
2023/10/28 02:17:36;;;;;;;0.70;0.70;;;9.30;99.90;;;;;;5010085;28;20044;-30
2023/10/28 02:20:03;;;;;;;2.80;0.85;;;9.30;99.90;;;;;;5004784;28;20400;-30
2023/10/28 02:22:31;;;;;;;0.93;0.90;;;9.30;99.90;;;;;;5009239;28;20432;-30
2023/10/28 02:24:57;;;;;;;1.20;0.87;;;9.30;99.90;;;;;;5005819;28;20061;-30
2023/10/28 02:27:23;;;;;;;0.70;0.70;;;9.30;99.90;;;;;;5008025;28;20057;-29
2023/10/28 02:29:48;;;;;;;1.67;1.10;;;9.20;99.90;;;;;;5006113;28;20030;-32
2023/10/28 02:32:14;;;;;;;0.68;0.60;;;9.20;99.90;;;;;;4992318;28;20061;-33
2023/10/28 02:34:41;;;;;;;0.65;0.65;;;9.10;99.90;;;;;;5007417;28;20041;-30
2023/10/28 02:37:07;;;;;;;1.20;0.70;;;9.10;99.90;;;;;;5008283;28;20018;-35
2023/10/28 02:39:33;;;;;;;1.10;0.80;;;9.10;99.90;;;;;;4987569;28;20411;-30
2023/10/28 02:41:58;;;;;;;0.70;0.70;;;9.00;99.90;;;;;;5003852;28;20038;-30
2023/10/28 02:44:24;;;;;;;1.48;0.70;;;9.10;99.90;;;;;;5005349;28;20535;-32
2023/10/28 02:46:50;;;;;;;1.45;0.60;;;9.00;99.90;;;;;;5005935;28;20034;-33
2023/10/28 02:49:15;;;;;;;0.88;0.73;;;9.10;99.90;;;;;;5008897;28;20068;-33
2023/10/28 02:51:41;;;;;;;1.25;0.80;;;9.20;99.90;;;;;;5016658;28;20026;-41
2023/10/28 02:54:07;;;;;;;2.35;0.70;;;9.20;99.90;;;;;;5004670;28;20033;-39
2023/10/28 02:56:32;;;;;;;3.05;1.05;;;9.20;99.90;;;;;;5008147;28;20034;-42
2023/10/28 02:58:58;;;;;;;1.17;0.70;;;9.30;99.90;;;;;;5006030;28;20502;-33
2023/10/28 03:01:23;;;;;;;1.45;1.35;;;9.30;99.90;;;;;;5003609;28;20380;-32
2023/10/28 03:03:49;;;;;;;0.80;0.80;;;9.30;99.90;;;;;;5002471;28;20037;-36
2023/10/28 03:06:15;;;;;;;0.70;0.70;;;9.20;99.90;;;;;;5006530;28;20879;-32
2023/10/28 03:08:41;;;;;;;0.77;0.70;;;9.30;99.90;;;;;;5007302;28;20494;-33
2023/10/28 03:11:07;;;;;;;2.38;0.77;;;9.30;99.90;;;;;;5007546;28;20530;-36
2023/10/28 03:13:33;;;;;;;1.13;0.70;;;9.20;99.90;;;;;;5015434;28;20104;-32
2023/10/28 03:15:58;;;;;;;0.80;0.80;;;9.20;99.90;;;;;;5002021;28;20119;-32
2023/10/28 03:18:24;;;;;;;0.93;0.80;;;9.20;99.90;;;;;;5004345;28;20022;-33
2023/10/28 03:20:50;;;;;;;1.05;1.00;;;9.30;99.90;;;;;;5006713;28;20038;-35
2023/10/28 03:23:16;;;;;;;0.80;0.80;;;9.20;99.90;;;;;;5005357;28;20367;-34
2023/10/28 03:25:42;;;;;;;1.48;0.80;;;9.30;99.90;;;;;;5006326;28;20060;-33
2023/10/28 03:28:08;;;;;;;3.53;1.05;;;9.30;99.90;;;;;;5009848;28;20631;-33
2023/10/28 03:30:34;;;;;;;1.17;1.00;;;9.30;99.90;;;;;;4991983;28;20491;-33
2023/10/28 03:33:00;;;;;;;1.92;0.90;;;9.30;99.90;;;;;;5011643;28;20044;-33
2023/10/28 03:35:27;;;;;;;0.80;0.80;;;9.30;99.90;;;;;;5003808;28;20026;-32
2023/10/28 03:37:52;;;;;;;0.77;0.70;;;9.40;99.90;;;;;;5006471;28;20109;-34
2023/10/28 03:40:18;;;;;;;2.05;0.90;;;9.40;99.90;;;;;;5002589;28;20130;-31
2023/10/28 03:42:44;;;;;;;0.82;0.82;;;9.40;99.90;;;;;;5005105;28;20491;-32
2023/10/28 03:45:10;;;;;;;2.17;1.05;;;9.40;99.90;;;;;;4998699;28;20091;-32
2023/10/28 03:47:36;;;;;;;0.98;0.70;;;9.40;99.90;;;;;;5000396;28;20042;-32
2023/10/28 03:50:02;;;;;;;0.63;0.63;;;9.30;99.90;;;;;;5003825;28;20034;-37
2023/10/28 03:52:28;;;;;;;1.17;0.63;;;9.40;99.90;;;;;;4998431;28;20033;-33
2023/10/28 03:54:53;;;;;;;1.85;0.90;;;9.30;99.90;;;;;;5003885;28;20030;-34
2023/10/28 03:57:19;;;;;;;2.03;0.88;;;9.30;99.90;;;;;;5010119;28;20103;-38
2023/10/28 03:59:49;;;;;;;1.33;0.70;;;9.30;99.90;;;;;;5008087;28;20049;-32
2023/10/28 04:02:15;;;;;;;1.73;0.80;;;9.30;99.90;;;;;;5005819;28;20632;-38
2023/10/28 04:04:41;;;;;;;2.28;0.85;;;9.30;99.90;;;;;;4999226;28;20121;-42
2023/10/28 04:07:06;;;;;;;1.10;0.70;;;9.30;99.90;;;;;;5005351;28;20105;-42
2023/10/28 04:09:32;;;;;;;0.70;0.70;;;9.30;99.90;;;;;;5001631;28;20033;-42
2023/10/28 04:12:00;;;;;;;1.48;0.88;;;9.40;99.90;;;;;;5002775;28;20034;-34
2023/10/28 04:14:25;;;;;;;0.57;0.57;;;9.40;99.90;;;;;;4998907;28;20036;-32
2023/10/28 04:16:51;;;;;;;0.60;0.60;;;9.40;99.90;;;;;;5004966;28;20442;-34
2023/10/28 04:19:17;;;;;;;1.25;1.08;;;9.40;99.90;;;;;;5005916;28;20037;-32
2023/10/28 04:21:43;;;;;;;0.95;0.75;;;9.40;99.90;;;;;;5007145;28;20388;-33
2023/10/28 04:24:10;;;;;;;0.88;0.70;;;9.40;99.90;;;;;;5004488;28;20718;-32
2023/10/28 04:26:36;;;;;;;0.77;0.77;;;9.40;99.90;;;;;;5003157;28;20484;-34
2023/10/28 04:29:03;;;;;;;0.60;0.60;;;9.50;99.90;;;;;;4997230;28;20052;-34
2023/10/28 04:31:29;;;;;;;0.70;0.70;;;9.40;99.90;;;;;;5001101;28;20124;-34
2023/10/28 04:33:55;;;;;;;1.20;0.77;;;9.40;99.90;;;;;;5005917;28;20130;-35
2023/10/28 04:36:21;;;;;;;1.80;0.93;;;9.40;99.90;;;;;;5006756;28;20030;-32
2023/10/28 04:38:47;;;;;;;0.90;0.90;;;9.40;99.90;;;;;;5010563;28;20105;-31
2023/10/28 04:41:13;;;;;;;0.77;0.70;;;9.40;99.90;;;;;;5001983;28;20674;-35
2023/10/28 04:43:39;;;;;;;1.15;1.05;;;9.40;99.90;;;;;;5008211;28;20149;-35
2023/10/28 04:46:05;;;;;;;2.88;1.77;;;9.40;99.90;;;;;;5007624;28;20136;-33
2023/10/28 04:48:32;;;;;;;2.47;2.28;;;9.40;99.90;;;;;;5007539;28;20473;-34
2023/10/28 04:50:58;;;;;;;1.23;1.20;;;9.30;99.90;;;;;;5007070;28;20048;-32
2023/10/28 04:53:23;;;;;;;2.17;1.35;;;9.30;99.90;;;;;;5009293;28;20124;-33
2023/10/28 04:55:50;;;;;;;2.00;1.20;;;9.30;99.90;;;;;;5002613;28;20121;-39
2023/10/28 04:58:15;;;;;;;1.25;0.80;;;9.30;99.90;;;;;;5010679;28;20025;-36
2023/10/28 05:00:41;;;;;;;1.77;1.15;;;9.30;99.90;;;;;;5007772;28;20033;-33
2023/10/28 05:03:07;;;;;;;3.38;1.40;;;9.30;99.90;;;;;;5002792;28;20037;-32
2023/10/28 05:05:33;;;;;;;1.27;0.85;;;9.30;99.90;;;;;;5011796;28;20033;-32
2023/10/28 05:07:58;;;;;;;1.55;1.10;;;9.30;99.90;;;;;;5011210;28;20034;-35
2023/10/28 05:10:24;;;;;;;2.78;1.35;;;9.30;99.90;;;;;;5003446;28;20041;-32
2023/10/28 05:12:50;;;;;;;0.68;0.68;;;9.30;99.90;;;;;;5003136;28;20038;-32
2023/10/28 05:15:15;;;;;;;1.10;1.00;;;9.30;99.90;;;;;;5003771;28;20029;-35
2023/10/28 05:17:41;;;;;;;0.93;0.73;;;9.30;99.90;;;;;;5012018;28;20033;-32
2023/10/28 05:20:08;;;;;;;2.35;0.75;;;9.30;99.90;;;;;;5003806;28;20022;-33
2023/10/28 05:22:39;;;;;;;3.00;0.90;;;9.30;99.90;;;;;;5004656;28;20088;-32
2023/10/28 05:25:07;;;;;;;0.85;0.70;;;9.30;99.90;;;;;;5003613;28;20403;-34
2023/10/28 05:27:33;;;;;;;1.20;0.80;;;9.20;99.90;;;;;;5009978;28;20030;-32
2023/10/28 05:29:59;;;;;;;0.73;0.73;;;9.20;99.90;;;;;;4989990;28;20045;-33
2023/10/28 05:32:25;;;;;;;1.20;0.80;;;9.20;99.90;;;;;;5002962;28;20030;-33
2023/10/28 05:34:51;;;;;;;1.88;0.82;;;9.10;99.90;;;;;;5004659;28;20592;-35
2023/10/28 05:37:17;;;;;;;1.90;0.90;;;9.00;99.90;;;;;;5009457;28;20107;-32
2023/10/28 05:39:42;;;;;;;0.65;0.65;;;9.00;99.90;;;;;;5007063;28;20026;-32
2023/10/28 05:42:10;;;;;;;0.70;0.70;;;9.00;99.90;;;;;;5008579;28;20758;-33
2023/10/28 05:44:36;;;;;;;0.90;0.90;;;9.00;99.90;;;;;;5008551;28;20070;-32
2023/10/28 05:47:02;;;;;;;1.13;0.80;;;9.00;99.90;;;;;;5008161;28;20057;-32
2023/10/28 05:49:28;;;;;;;2.30;1.73;;;8.90;99.90;;;;;;5005650;28;20022;-35
2023/10/28 05:51:54;;;;;;;2.55;1.02;;;8.90;99.90;;;;;;5009810;28;20137;-38
2023/10/28 05:54:20;;;;;;;1.15;1.00;;;8.90;99.90;;;;;;5004055;28;20475;-34
2023/10/28 05:56:46;;;;;;;0.75;0.75;;;8.90;99.90;;;;;;4990567;28;20112;-34
2023/10/28 05:59:12;;;;;;;0.82;0.80;;;8.80;99.90;;;;;;5002267;28;20034;-33
2023/10/28 06:01:38;;;;;;;1.58;0.80;;;8.80;99.90;;;;;;5003684;28;20387;-36
2023/10/28 06:04:04;;;;;;;1.58;1.13;;;8.80;99.90;;;;;;4987787;28;20471;-34
2023/10/28 06:06:29;;;;;;;2.47;1.70;;;8.70;99.90;;;;;;5006381;28;20165;-32
2023/10/28 06:08:57;;;;;;;2.35;1.17;;;8.70;99.90;;;;;;5009836;28;20045;-35
2023/10/28 06:11:23;;;;;;;1.65;1.17;;;8.60;99.90;;;;;;5001074;28;20034;-32
2023/10/28 06:13:49;;;;;;;1.05;0.98;;;8.60;99.90;;;;;;5001877;28;20037;-36
2023/10/28 06:16:14;;;;;;;2.50;1.38;;;8.60;99.90;;;;;;5006653;28;20042;-32
2023/10/28 06:18:40;;;;;;;1.20;1.10;;;8.60;99.90;;;;;;5006024;28;20030;-35
2023/10/28 06:21:06;;;;;;;0.90;0.90;;;8.60;99.90;;;;;;5005127;28;20053;-32
2023/10/28 06:23:32;;;;;;;0.77;0.77;;;8.50;99.90;;;;;;5006940;28;20050;-33
2023/10/28 06:25:57;;;;;;;1.23;0.90;;;8.50;99.90;;;;;;5003758;28;20088;-33
2023/10/28 06:28:23;;;;;;;0.82;0.80;;;8.50;99.90;;;;;;5005414;28;22253;-33
2023/10/28 06:30:49;;;;;;;1.00;0.98;;;8.40;99.90;;;;;;5005905;28;20045;-38
2023/10/28 06:33:16;;;;;;;1.15;1.10;;;8.40;99.90;;;;;;5006293;28;20051;-38
2023/10/28 06:35:42;;;;;;;1.45;1.10;;;8.40;99.90;;;;;;5003538;28;20041;-40
2023/10/28 06:38:08;;;;;;;1.30;0.88;;;8.40;99.90;;;;;;5003453;28;20606;-39
2023/10/28 06:40:37;;;;;;;2.13;1.00;;;8.40;99.90;;;;;;5005871;28;20026;-38
2023/10/28 06:43:03;;;;;;;1.90;1.00;;;8.50;99.90;;;;;;5004160;28;21596;-39
2023/10/28 06:45:29;;;;;;;0.90;0.90;;;8.50;99.90;;;;;;5002337;28;20030;-39
2023/10/28 06:47:55;;;;;;;2.05;1.10;;;8.60;99.90;;;;;;5001597;28;20041;-34
2023/10/28 06:50:21;;;;;;;1.00;1.00;;;8.50;99.90;;;;;;5005935;28;20033;-39
2023/10/28 06:52:49;;;;;;;1.58;0.95;;;8.60;99.90;;;;;;5006863;28;20749;-39
2023/10/28 06:55:17;;;;;;;2.30;1.10;;;8.50;99.90;;;;;;5005018;28;20262;-38
2023/10/28 06:57:44;;;;;;;2.10;0.98;;;8.60;99.90;;;;;;5011531;28;20069;-36
2023/10/28 07:00:13;;;;;;;2.40;1.10;;;8.60;99.90;;;;;;4996409;28;20030;-40
2023/10/28 07:02:43;;;;;;;1.67;0.90;;;8.60;99.90;;;;;;5006121;28;20038;-38
2023/10/28 07:05:10;;;;;;;0.80;0.80;;;8.60;99.90;;;;;;5007044;28;20026;-39
2023/10/28 07:07:36;;;;;;;0.85;0.80;;;8.70;99.90;;;;;;5001163;28;20161;-39
2023/10/28 07:10:02;;;;;;;2.30;1.10;;;8.70;99.90;;;;;;5010638;28;20402;-39
2023/10/28 07:12:28;;;;;;;0.85;0.80;;;8.70;99.90;;;;;;5001919;28;20026;-37
2023/10/28 07:14:56;;;;;;;1.08;0.70;;;8.70;99.90;;;;;;5005104;28;20029;-37
2023/10/28 07:17:22;;;;;;;3.25;1.08;;;8.80;99.90;;;;;;4985116;28;20667;-39
2023/10/28 07:19:48;;;;;;;1.60;1.08;;;8.90;99.90;;;;;;5000600;28;20062;-36
2023/10/28 07:22:20;;;;;;;1.58;1.00;;;8.90;99.90;;;;;;5003419;28;20544;-38
2023/10/28 07:24:46;;;;;;;1.85;1.23;;;8.90;99.90;;;;;;4992009;28;20038;-39
2023/10/28 07:27:12;;;;;;;0.80;0.80;;;9.00;99.90;;;;;;5004739;28;20495;-38
2023/10/28 07:29:38;;;;;;;1.40;0.90;;;9.10;99.90;;;;;;5006975;28;20045;-39
2023/10/28 07:32:04;;;;;;;2.25;1.13;;;9.10;99.90;;;;;;4999712;28;20042;-36
2023/10/28 07:34:30;;;;;;;0.73;0.73;;;9.20;99.90;;;;;;5006142;28;20482;-39
2023/10/28 07:36:59;;;;;;;1.55;1.05;;;9.30;99.90;;;;;;5000507;28;20033;-35
2023/10/28 07:39:25;;;;;;;0.68;0.68;;;9.40;99.90;;;;;;5007008;28;20037;-39
2023/10/28 07:41:55;;;;;;;1.58;0.90;;;9.60;99.90;;;;;;5003931;28;20035;-31
2023/10/28 07:44:21;;;;;;;2.47;0.93;;;9.70;99.90;;;;;;5009467;28;20553;-32
2023/10/28 07:46:46;;;;;;;0.95;0.80;;;9.90;99.90;;;;;;5006370;28;20176;-30
2023/10/28 07:49:12;;;;;;;1.13;1.02;;;9.90;99.90;;;;;;5003221;28;20034;-30
2023/10/28 07:51:38;;;;;;;3.20;0.90;;;10.00;99.90;;;;;;5005753;28;20119;-33
2023/10/28 07:54:04;;;;;;;1.08;0.93;;;10.00;99.90;;;;;;5001602;28;20053;-32
2023/10/28 07:56:30;;;;;;;0.80;0.80;;;10.00;99.90;;;;;;5000768;28;20075;-30
2023/10/28 07:58:59;;;;;;;0.70;0.70;;;10.00;99.90;;;;;;5003424;28;20415;-32
2023/10/28 08:01:27;;;;;;;0.73;0.73;;;10.00;99.90;;;;;;4998164;28;20039;-31
2023/10/28 08:03:52;;;;;;;2.15;0.90;;;10.00;99.90;;;;;;5003192;28;20029;-30
2023/10/28 08:06:19;;;;;;;1.95;1.00;;;10.10;99.90;;;;;;5005001;28;20037;-30
2023/10/28 08:08:46;;;;;;;1.33;1.10;;;10.20;99.90;;;;;;5006458;28;20018;-29
2023/10/28 08:11:13;;;;;;;1.80;0.85;;;10.20;99.90;;;;;;4991606;28;20447;-30
2023/10/28 08:13:39;;;;;;;1.65;0.68;;;10.20;99.90;;;;;;5005460;28;20034;-32
2023/10/28 08:16:09;;;;;;;2.50;0.75;;;10.30;99.90;;;;;;5006233;28;21275;-30
2023/10/28 08:18:35;;;;;;;0.70;0.70;;;10.40;99.90;;;;;;5010081;28;20438;-30
2023/10/28 08:21:01;;;;;;;1.30;1.05;;;10.50;99.90;;;;;;5011114;28;20080;-30
2023/10/28 08:23:28;;;;;;;1.52;1.42;;;10.70;99.90;;;;;;5011236;28;20880;-31
2023/10/28 08:25:55;;;;;;;0.83;0.63;;;10.80;99.90;;;;;;5007867;28;20488;-37
2023/10/28 08:28:21;;;;;;;0.85;0.85;;;10.80;99.90;;;;;;5004033;28;20296;-31
2023/10/28 08:30:46;;;;;;;0.80;0.80;;;10.90;99.90;;;;;;5009357;28;20095;-30
2023/10/28 08:33:12;;;;;;;1.00;0.70;;;11.00;99.90;;;;;;4999307;28;20515;-30
2023/10/28 08:35:37;;;;;;;0.80;0.80;;;11.10;99.90;;;;;;4997160;28;20513;-34
2023/10/28 08:38:05;;;;;;;0.77;0.70;;;11.20;99.90;;;;;;5004741;28;20034;-31
2023/10/28 08:40:31;;;;;;;1.23;0.93;;;11.40;99.90;;;;;;5003029;28;20092;-31
2023/10/28 08:42:58;;;;;;;1.58;1.00;;;11.40;99.90;;;;;;4998143;28;20026;-33
2023/10/28 08:45:26;;;;;;;5.70;1.00;;;11.50;99.90;;;;;;4997001;28;20043;-32
2023/10/28 08:47:53;;;;;;;1.10;0.93;;;11.40;99.90;;;;;;4995762;28;20402;-35
2023/10/28 08:50:23;;;;;;;1.63;0.70;;;11.50;99.90;;;;;;5002388;28;20112;-37
2023/10/28 08:52:51;;;;;;;1.73;0.73;;;11.60;99.90;;;;;;5003831;28;20537;-37
2023/10/28 08:55:20;;;;;;;2.00;0.90;;;11.70;99.90;;;;;;4998796;28;20641;-38
2023/10/28 08:57:46;;;;;;;1.45;0.70;;;11.80;99.90;;;;;;5003487;28;20032;-35
2023/10/28 09:00:16;;;;;;;0.93;0.80;;;12.00;99.90;;;;;;5001561;28;20034;-42
2023/10/28 09:02:46;;;;;;;1.25;0.77;;;12.10;99.90;;;;;;5000696;28;20041;-40
2023/10/28 09:05:12;;;;;;;1.42;0.90;;;12.10;99.90;;;;;;5001231;28;20034;-42
2023/10/28 09:07:38;;;;;;;1.13;0.82;;;12.20;99.90;;;;;;5004532;28;20023;-39
2023/10/28 09:10:04;;;;;;;0.95;0.60;;;12.30;99.90;;;;;;5001632;28;20044;-39
2023/10/28 09:12:32;;;;;;;1.23;0.90;;;12.30;99.90;;;;;;4988570;28;20033;-40
2023/10/28 09:14:57;;;;;;;0.77;0.60;;;12.50;99.90;;;;;;5004204;28;20525;-39
2023/10/28 09:17:23;;;;;;;2.05;0.80;;;12.50;99.90;;;;;;4999916;28;20026;-41
2023/10/28 09:19:51;;;;;;;1.75;0.70;;;12.60;99.90;;;;;;4989696;28;20026;-35
2023/10/28 09:22:17;;;;;;;1.67;0.63;;;12.60;99.90;;;;;;4987773;28;20471;-41
2023/10/28 09:24:46;;;;;;;2.28;0.80;;;12.70;99.90;;;;;;5008383;28;20029;-40
2023/10/28 09:27:13;;;;;;;0.80;0.73;;;12.70;99.90;;;;;;5005048;28;20116;-40
2023/10/28 09:29:41;;;;;;;1.23;0.80;;;12.70;99.90;;;;;;5002059;28;20861;-40
2023/10/28 09:32:08;;;;;;;1.65;0.70;;;12.80;99.90;;;;;;5006887;28;20041;-41
2023/10/28 09:34:38;;;;;;;3.03;0.90;;;12.90;99.90;;;;;;5004108;28;20492;-40
2023/10/28 09:37:07;;;;;;;0.77;0.60;;;12.90;99.90;;;;;;5006121;28;20052;-40
2023/10/28 09:39:38;;;;;;;2.72;1.00;;;12.90;99.90;;;;;;5006973;28;20109;-40
2023/10/28 09:42:04;;;;;;;1.35;0.70;;;12.90;99.90;;;;;;4988821;28;20173;-38
2023/10/28 09:44:30;;;;;;;0.60;0.60;;;13.10;99.90;;;;;;5007648;28;20448;-40
2023/10/28 09:47:04;;;;;;;0.60;0.60;;;13.20;99.90;;;;;;5008412;28;20030;-37
2023/10/28 09:49:30;;;;;;;1.08;0.70;;;13.20;99.90;;;;;;5008049;28;20136;-40
2023/10/28 09:52:06;;;;;;;2.28;0.85;;;13.20;99.90;;;;;;4999500;28;20026;-35
2023/10/28 09:54:36;;;;;;;1.90;0.68;;;13.20;99.90;;;;;;5005742;28;20475;-34
2023/10/28 09:57:03;;;;;;;1.92;0.77;;;13.30;99.90;;;;;;5006097;28;20475;-33
2023/10/28 09:59:33;;;;;;;1.67;0.80;;;13.30;99.90;;;;;;5004701;28;20030;-34
2023/10/28 10:02:28;;;;;;;0.70;0.70;;;13.40;99.90;;;;;;5006317;28;20185;-34
2023/10/28 10:05:05;;;;;;;2.13;0.88;;;13.40;99.90;;;;;;5009758;28;20091;-31
2023/10/28 10:07:32;;;;;;;1.30;0.90;;;13.50;99.90;;;;;;5002380;28;20034;-30
2023/10/28 10:10:10;;;;;;;1.10;0.90;;;13.40;99.90;;;;;;5006799;28;20125;-33
2023/10/28 10:12:36;;;;;;;3.78;0.80;;;13.50;99.90;;;;;;5001088;28;20038;-31
2023/10/28 10:15:03;;;;;;;0.60;0.60;;;13.50;99.90;;;;;;5006590;28;20120;-30
2023/10/28 10:17:53;;;;;;;1.33;0.73;;;13.50;99.90;;;;;;5008692;28;20534;-34
2023/10/28 10:20:28;;;;;;;3.38;0.90;;;13.50;99.90;;;;;;4999406;28;20121;-32
2023/10/28 10:22:59;;;;;;;1.30;0.80;;;13.60;99.90;;;;;;5003416;28;20097;-38
2023/10/28 10:25:37;;;;;;;1.27;0.90;;;13.60;99.90;;;;;;5009849;28;20029;-30
2023/10/28 10:28:23;;;;;;;1.35;0.70;;;13.50;99.90;;;;;;5006899;28;20053;-32
2023/10/28 10:30:49;;;;;;;1.75;0.90;;;13.60;99.90;;;;;;5003829;28;20041;-37
2023/10/28 10:33:25;;;;;;;4.05;0.82;;;13.70;99.90;;;;;;5008761;28;20037;-30
2023/10/28 10:35:51;;;;;;;1.33;0.90;;;13.70;99.90;;;;;;5006034;28;20041;-36
2023/10/28 10:38:26;;;;;;;0.47;0.47;;;13.60;99.90;;;;;;5000960;28;20032;-30
2023/10/28 10:40:53;;;;;;;1.42;0.60;;;13.60;99.90;;;;;;5006057;28;20105;-32
2023/10/28 10:43:20;;;;;;;1.80;0.82;;;13.50;99.90;;;;;;5005289;28;20027;-30
2023/10/28 10:45:47;;;;;;;1.85;0.77;;;13.50;99.90;;;;;;5006457;28;20029;-31
2023/10/28 10:48:20;;;;;;;0.80;0.80;;;13.50;99.90;;;;;;5065079;27;20407;-30
2023/10/28 10:50:47;;;;;;;1.55;1.00;;;13.60;99.90;;;;;;5060736;28;20494;-29
2023/10/28 10:53:12;;;;;;;0.77;0.77;;;13.70;99.90;;;;;;5062313;28;20651;-31
2023/10/28 10:55:38;;;;;;;2.13;1.25;;;13.70;99.90;;;;;;5065235;28;20029;-28
2023/10/28 10:58:05;;;;;;;1.55;0.82;;;13.70;99.90;;;;;;5066708;28;20036;-29
2023/10/28 11:00:32;;;;;;;1.67;0.88;;;13.80;99.90;;;;;;5064712;27;20032;-28
2023/10/28 11:03:00;;;;;;;2.53;0.93;;;13.90;99.90;;;;;;5043470;28;20036;-28
2023/10/28 11:05:30;;;;;;;0.82;0.70;;;14.00;99.90;;;;;;5042917;28;20167;-30
2023/10/28 11:07:56;;;;;;;1.15;0.60;;;13.90;99.90;;;;;;5044381;28;20633;-28
2023/10/28 11:10:25;;;;;;;3.65;0.90;;;14.00;99.90;;;;;;5044888;28;20394;-28
2023/10/28 11:12:50;;;;;;;1.45;0.85;;;14.00;99.90;;;;;;5043576;28;20040;-31
2023/10/28 11:15:16;;;;;;;2.58;0.80;;;14.10;99.90;;;;;;5043306;28;20108;-32
2023/10/28 11:17:42;;;;;;;0.75;0.70;;;14.10;99.90;;;;;;5046379;28;20398;-34
2023/10/28 11:20:10;;;;;;;0.82;0.80;;;14.00;99.90;;;;;;5041589;28;20040;-34
2023/10/28 11:22:36;;;;;;;4.07;1.05;;;14.10;99.90;;;;;;5045969;28;20033;-32
2023/10/28 11:25:04;;;;;;;1.38;0.70;;;14.10;99.90;;;;;;5040863;28;20125;-34
2023/10/28 11:27:30;;;;;;;1.05;0.75;;;14.30;99.90;;;;;;5043263;28;20053;-33
2023/10/28 11:29:57;;;;;;;0.52;0.47;;;14.30;99.90;;;;;;5043200;28;20037;-31
2023/10/28 11:32:23;;;;;;;0.90;0.90;;;14.50;99.90;;;;;;5037912;28;20553;-34
2023/10/28 11:34:49;;;;;;;2.60;0.73;;;14.40;99.90;;;;;;5038386;28;20022;-33
2023/10/28 11:37:14;;;;;;;1.08;0.50;;;14.10;99.90;;;;;;5042520;28;20118;-32
2023/10/28 11:39:42;;;;;;;2.28;0.95;;;14.00;99.90;;;;;;5040933;28;20077;-37
2023/10/28 11:42:15;;;;;;;4.45;0.80;;;14.00;99.90;;;;;;5041661;28;20029;-34
2023/10/28 11:44:46;;;;;;;3.45;1.00;;;14.00;99.90;;;;;;5042466;28;20028;-31
2023/10/28 11:47:11;;;;;;;3.70;0.73;;;13.90;99.90;;;;;;5042044;28;20080;-32
2023/10/28 11:49:37;;;;;;;0.77;0.60;;;14.20;99.90;;;;;;5044271;28;20067;-31
2023/10/28 11:52:04;;;;;;;2.33;0.80;;;14.30;99.90;;;;;;5036631;28;20025;-35
2023/10/28 11:54:30;;;;;;;2.85;0.73;;;14.40;99.90;;;;;;5041279;28;20021;-32
2023/10/28 11:56:56;;;;;;;1.55;0.80;;;14.40;99.90;;;;;;5040178;28;20524;-37
2023/10/28 11:59:22;;;;;;;2.03;0.60;;;14.40;99.90;;;;;;5031565;28;20044;-33
2023/10/28 12:01:48;;;;;;;0.80;0.47;;;14.40;99.90;;;;;;5028936;28;20030;-36
2023/10/28 12:04:14;;;;;;;2.88;1.30;;;14.40;99.90;;;;;;5029789;28;20030;-34
2023/10/28 12:06:41;;;;;;;0.90;0.70;;;14.40;99.90;;;;;;5029705;28;20033;-32
2023/10/28 12:09:13;;;;;;;3.17;0.85;;;14.20;99.90;;;;;;5029570;28;20087;-32
2023/10/28 12:11:38;;;;;;;1.80;1.27;;;14.30;99.90;;;;;;5030003;28;20026;-31
2023/10/28 12:14:13;;;;;;;1.48;0.75;;;14.40;99.90;;;;;;5026061;28;20082;-30
2023/10/28 12:16:39;;;;;;;1.85;0.73;;;14.50;99.90;;;;;;5031555;28;20108;-29
2023/10/28 12:19:05;;;;;;;4.43;1.20;;;14.60;99.90;;;;;;5027184;28;20112;-29
2023/10/28 12:21:32;;;;;;;0.60;0.60;;;14.80;99.90;;;;;;5030137;28;20497;-40
2023/10/28 12:23:57;;;;;;;0.85;0.77;;;14.90;99.90;;;;;;5026480;28;20111;-40
2023/10/28 12:26:23;;;;;;;1.80;0.85;;;14.90;99.90;;;;;;5028734;28;20426;-40
2023/10/28 12:28:49;;;;;;;2.47;0.90;;;14.70;99.90;;;;;;5030623;28;20032;-35
2023/10/28 12:31:33;;;;;;;1.98;0.82;;;14.70;99.90;;;;;;5027847;28;20034;-41
2023/10/28 12:33:58;;;;;;;0.80;0.68;;;14.70;99.90;;;;;;5023408;28;20094;-34
2023/10/28 12:36:24;;;;;;;1.88;0.90;;;14.90;99.90;;;;;;5030631;28;20026;-42
2023/10/28 12:38:50;;;;;;;4.78;1.08;;;14.90;99.90;;;;;;5025195;28;20029;-34
2023/10/28 12:41:16;;;;;;;1.88;0.90;;;14.90;99.90;;;;;;5027981;28;20109;-39
2023/10/28 12:43:41;;;;;;;0.85;0.60;;;14.90;99.90;;;;;;5029820;28;20091;-40
2023/10/28 12:46:07;;;;;;;4.10;1.23;;;14.90;99.90;;;;;;5028322;28;20538;-38
2023/10/28 12:48:36;;;;;;;2.30;1.00;;;14.90;99.90;;;;;;5027043;28;20028;-39
2023/10/28 12:51:02;;;;;;;3.50;1.10;;;14.90;99.90;;;;;;5024270;28;20022;-39